createdAt,value
2023-01-22T00:01:30.738Z,119.21
2023-01-22T00:04:37.643Z,120.83
2023-01-22T00:07:44.673Z,121.68
2023-01-22T00:10:54.536Z,123.23
2023-01-22T00:14:01.638Z,121.39
2023-01-22T00:17:10.644Z,122.76
2023-01-22T00:20:18.132Z,121.88
2023-01-22T00:23:25.175Z,121.94
2023-01-22T00:26:32.364Z,123.30
2023-01-22T00:29:38.518Z,124.06
2023-01-22T00:32:49.214Z,125.03
2023-01-22T00:35:55.429Z,124.81
2023-01-22T00:39:02.411Z,120.38
2023-01-22T00:42:08.742Z,122.21
2023-01-22T00:45:17.992Z,120.33
2023-01-22T00:48:26.890Z,121.32
2023-01-22T00:51:34.083Z,119.19
2023-01-22T00:54:40.208Z,115.97
2023-01-22T00:57:47.339Z,112.03
2023-01-22T01:00:54.353Z,110.96
2023-01-22T01:04:03.993Z,106.04
2023-01-22T01:07:11.818Z,106.27
2023-01-22T01:10:19.649Z,104.99
2023-01-22T01:13:26.359Z,101.77
2023-01-22T01:16:35.554Z,98.36
2023-01-22T01:19:44.551Z,100.37
2023-01-22T01:22:51.719Z,95.39
2023-01-22T01:25:58.360Z,93.56
2023-01-22T01:29:06.605Z,88.20
2023-01-22T01:32:12.659Z,87.80
2023-01-22T01:35:24.282Z,87.69
2023-01-22T01:38:30.571Z,88.77
2023-01-22T01:41:37.395Z,84.45
2023-01-22T01:44:46.251Z,85.95
2023-01-22T01:48:05.319Z,85.65
2023-01-22T01:51:21.137Z,81.73
2023-01-22T01:54:30.844Z,77.38
2023-01-22T01:57:38.976Z,80.40
2023-01-22T02:00:50.188Z,77.22
2023-01-22T02:03:57.324Z,73.59
2023-01-22T02:07:09.070Z,73.89
2023-01-22T02:10:15.496Z,73.04
2023-01-22T02:13:30.196Z,71.39
2023-01-22T02:16:38.437Z,72.06
2023-01-22T02:19:46.986Z,68.04
2023-01-22T02:22:55.997Z,68.10
2023-01-22T02:26:03.956Z,66.13
2023-01-22T02:29:11.845Z,65.64
2023-01-22T02:32:19.001Z,62.60
2023-01-22T02:35:30.042Z,60.12
2023-01-22T02:38:38.752Z,60.42
2023-01-22T02:41:45.803Z,60.58
2023-01-22T02:44:53.689Z,59.55
2023-01-22T02:48:00.599Z,61.14
2023-01-22T02:51:08.473Z,62.84
2023-01-22T02:54:18.215Z,65.47
2023-01-22T02:57:24.330Z,60.30
2023-01-22T03:00:31.201Z,56.75
2023-01-22T03:03:37.228Z,55.99
2023-01-22T03:06:48.433Z,52.52
2023-01-22T03:09:57.085Z,50.93
2023-01-22T03:13:16.353Z,47.54
2023-01-22T03:16:35.028Z,48.83
2023-01-22T03:19:54.370Z,48.14
2023-01-22T03:23:00.607Z,45.22
2023-01-22T03:26:11.434Z,45.46
2023-01-22T03:29:17.652Z,45.81
2023-01-22T03:32:25.406Z,45.97
2023-01-22T03:35:34.781Z,43.31
2023-01-22T03:38:52.645Z,39.88
2023-01-22T03:42:05.666Z,40.91
2023-01-22T03:45:14.090Z,37.60
2023-01-22T03:48:20.336Z,38.18
2023-01-22T03:51:28.564Z,38.42
2023-01-22T03:54:35.728Z,37.00
2023-01-22T03:57:46.665Z,36.14
2023-01-22T04:00:57.775Z,36.00
2023-01-22T04:04:05.032Z,34.96
2023-01-22T04:07:11.719Z,34.48
2023-01-22T04:10:21.511Z,34.45
2023-01-22T04:13:33.937Z,35.61
2023-01-22T04:16:41.749Z,33.09
2023-01-22T04:20:07.467Z,32.66
2023-01-22T04:23:43.521Z,30.73
2023-01-22T04:26:49.862Z,30.60
2023-01-22T04:30:02.132Z,31.00
2023-01-22T04:33:08.946Z,30.22
2023-01-22T04:36:36.619Z,30.69
2023-01-22T04:39:42.677Z,29.81
2023-01-22T04:42:50.233Z,27.59
2023-01-22T04:45:58.889Z,27.86
2023-01-22T04:49:10.228Z,26.97
2023-01-22T04:52:17.907Z,26.30
2023-01-22T04:55:26.229Z,25.35
2023-01-22T04:58:39.164Z,25.17
2023-01-22T05:01:50.830Z,24.66
2023-01-22T05:04:58.432Z,25.30
2023-01-22T05:08:05.496Z,24.39
2023-01-22T05:11:14.563Z,23.40
2023-01-22T05:14:32.703Z,23.20
2023-01-22T05:17:43.240Z,22.20
2023-01-22T05:20:50.095Z,20.77
2023-01-22T05:23:57.661Z,21.79
2023-01-22T05:27:08.457Z,22.11
2023-01-22T05:30:23.991Z,22.82
2023-01-22T05:33:53.761Z,22.65
2023-01-22T05:37:01.593Z,23.04
2023-01-22T05:40:14.037Z,24.35
2023-01-22T05:43:21.983Z,24.66
2023-01-22T05:46:35.704Z,24.52
2023-01-22T05:49:55.942Z,22.79
2023-01-22T05:53:03.019Z,24.24
2023-01-22T05:56:10.531Z,25.46
2023-01-22T05:59:19.808Z,28.78
2023-01-22T06:02:33.494Z,33.47
2023-01-22T06:05:44.124Z,29.44
2023-01-22T06:08:54.340Z,24.40
2023-01-22T06:12:02.931Z,23.99
2023-01-22T06:15:12.001Z,22.97
2023-01-22T06:18:24.655Z,22.88
2023-01-22T06:21:33.359Z,23.98
2023-01-22T06:24:40.476Z,22.73
2023-01-22T06:27:49.531Z,22.69
2023-01-22T06:31:05.644Z,22.23
2023-01-22T06:34:12.604Z,22.31
2023-01-22T06:37:23.123Z,21.71
2023-01-22T06:40:31.058Z,21.43
2023-01-22T06:43:38.076Z,21.69
2023-01-22T06:46:44.133Z,21.02
2023-01-22T06:49:58.329Z,22.38
2023-01-22T06:53:07.488Z,22.67
2023-01-22T06:56:14.566Z,23.58
2023-01-22T06:59:20.784Z,24.32
2023-01-22T07:02:27.904Z,23.88
2023-01-22T07:05:33.937Z,23.65
2023-01-22T07:08:44.023Z,25.28
2023-01-22T07:11:50.319Z,26.41
2023-01-22T07:14:57.363Z,27.10
2023-01-22T07:18:03.575Z,27.07
2023-01-22T07:21:10.745Z,26.28
2023-01-22T07:24:20.416Z,25.57
2023-01-22T07:27:27.542Z,27.56
2023-01-22T07:30:34.723Z,27.38
2023-01-22T07:33:41.788Z,28.10
2023-01-22T07:36:49.905Z,29.14
2023-01-22T07:39:59.443Z,29.21
2023-01-22T07:43:10.830Z,27.54
2023-01-22T07:46:17.710Z,28.36
2023-01-22T07:49:24.188Z,29.53
2023-01-22T07:52:31.185Z,28.47
2023-01-22T07:55:39.910Z,31.49
2023-01-22T07:58:46.911Z,33.29
2023-01-22T08:01:53.073Z,34.12
2023-01-22T08:05:00.039Z,34.34
2023-01-22T08:08:06.252Z,35.02
2023-01-22T08:11:16.144Z,35.24
2023-01-22T08:14:23.255Z,33.16
2023-01-22T08:17:30.252Z,32.74
2023-01-22T08:20:36.804Z,33.86
2023-01-22T08:23:47.523Z,36.47
2023-01-22T08:26:58.568Z,34.84
2023-01-22T08:30:06.123Z,36.23
2023-01-22T08:33:12.255Z,38.28
2023-01-22T08:36:19.184Z,36.85
2023-01-22T08:39:27.393Z,35.64
2023-01-22T08:42:37.257Z,34.00
2023-01-22T08:45:43.297Z,32.59
2023-01-22T08:48:51.016Z,33.08
2023-01-22T08:51:57.271Z,35.53
2023-01-22T08:55:05.567Z,35.91
2023-01-22T08:58:15.319Z,36.79
2023-01-22T09:01:24.314Z,35.12
2023-01-22T09:04:31.666Z,35.89
2023-01-22T09:07:38.654Z,35.54
2023-01-22T09:10:46.251Z,38.67
2023-01-22T09:13:57.322Z,38.38
2023-01-22T09:17:03.371Z,38.52
2023-01-22T09:20:11.609Z,39.55
2023-01-22T09:23:17.773Z,37.82
2023-01-22T09:26:24.866Z,38.39
2023-01-22T09:29:33.555Z,38.50
2023-01-22T09:32:41.580Z,38.79
2023-01-22T09:35:47.991Z,39.53
2023-01-22T09:38:55.407Z,37.93
2023-01-22T09:42:07.241Z,38.61
2023-01-22T09:45:26.016Z,39.71
2023-01-22T09:48:43.862Z,41.90
2023-01-22T09:51:58.536Z,38.84
2023-01-22T09:55:04.824Z,38.90
2023-01-22T09:58:19.376Z,39.83
2023-01-22T10:01:30.421Z,40.65
2023-01-22T10:04:45.784Z,42.36
2023-01-22T10:08:03.619Z,44.81
2023-01-22T10:11:13.462Z,41.97
2023-01-22T10:14:25.421Z,42.29
2023-01-22T10:17:42.244Z,41.09
2023-01-22T10:20:49.040Z,38.79
2023-01-22T10:23:58.453Z,35.80
2023-01-22T10:27:16.856Z,34.78
2023-01-22T10:30:28.970Z,34.83
2023-01-22T10:33:44.808Z,36.89
2023-01-22T10:36:56.584Z,37.54
2023-01-22T10:40:08.537Z,36.69
2023-01-22T10:43:20.073Z,32.51
2023-01-22T10:46:29.029Z,30.03
2023-01-22T10:49:38.792Z,32.91
2023-01-22T10:52:51.811Z,31.36
2023-01-22T10:56:03.884Z,30.60
2023-01-22T10:59:27.772Z,33.15
2023-01-22T11:02:38.919Z,32.34
2023-01-22T11:05:53.989Z,31.74
2023-01-22T11:09:11.126Z,34.07
2023-01-22T11:12:27.715Z,34.09
2023-01-22T11:15:46.117Z,34.35
2023-01-22T11:19:01.113Z,33.62
2023-01-22T11:22:28.244Z,33.70
2023-01-22T11:25:46.900Z,34.47
2023-01-22T11:29:11.211Z,33.13
2023-01-22T11:32:47.694Z,35.28
2023-01-22T11:36:09.467Z,33.78
2023-01-22T11:39:45.374Z,35.62
2023-01-22T11:43:33.142Z,32.55
2023-01-22T11:47:06.095Z,32.86
2023-01-22T11:50:31.271Z,35.36
2023-01-22T11:54:15.403Z,37.43
2023-01-22T11:57:37.312Z,44.13
2023-01-22T12:00:54.947Z,41.62
2023-01-22T12:04:37.772Z,39.42
2023-01-22T12:08:13.036Z,35.65
2023-01-22T12:11:51.210Z,34.33
2023-01-22T12:15:22.695Z,43.56
2023-01-22T12:19:14.343Z,35.71
2023-01-22T12:22:35.168Z,41.35
2023-01-22T12:25:56.113Z,41.76
2023-01-22T12:29:17.528Z,41.93
2023-01-22T12:32:33.723Z,46.29
2023-01-22T12:35:40.014Z,42.53
2023-01-22T12:38:57.651Z,43.95
2023-01-22T12:42:26.248Z,43.74
2023-01-22T12:45:48.219Z,42.19
2023-01-22T12:49:09.102Z,42.24
2023-01-22T12:52:33.541Z,45.76
2023-01-22T12:55:44.402Z,45.09
2023-01-22T12:59:00.800Z,49.35
2023-01-22T13:02:23.645Z,51.78
2023-01-22T13:05:47.338Z,52.55
2023-01-22T13:08:53.408Z,45.00
2023-01-22T13:12:12.388Z,46.09
2023-01-22T13:15:25.706Z,47.66
2023-01-22T13:18:38.063Z,49.18
2023-01-22T13:21:48.947Z,52.69
2023-01-22T13:24:58.759Z,60.13
2023-01-22T13:28:06.327Z,60.00
2023-01-22T13:31:21.028Z,60.66
2023-01-22T13:34:31.253Z,64.85
2023-01-22T13:37:42.096Z,79.15
2023-01-22T13:40:51.798Z,128.51
2023-01-22T13:44:00.455Z,208.48
2023-01-22T13:47:08.546Z,105.58
2023-01-22T13:50:25.537Z,70.57
2023-01-22T13:53:42.251Z,64.84
2023-01-22T13:56:49.530Z,62.57
2023-01-22T13:59:57.054Z,62.41
2023-01-22T14:03:05.111Z,58.84
2023-01-22T14:06:15.333Z,59.96
2023-01-22T14:09:34.261Z,66.05
2023-01-22T14:12:40.431Z,75.26
2023-01-22T14:16:01.774Z,63.80
2023-01-22T14:19:07.813Z,63.40
2023-01-22T14:22:14.711Z,55.15
2023-01-22T14:25:23.544Z,58.93
2023-01-22T14:28:34.281Z,58.33
2023-01-22T14:31:42.804Z,72.05
2023-01-22T14:34:49.739Z,72.31
2023-01-22T14:37:58.007Z,68.98
2023-01-22T14:41:10.768Z,60.39
2023-01-22T14:44:16.799Z,53.56
2023-01-22T14:47:23.698Z,53.51
2023-01-22T14:50:30.785Z,53.98
2023-01-22T14:53:37.649Z,56.88
2023-01-22T14:56:46.365Z,58.26
2023-01-22T14:59:53.444Z,61.30
2023-01-22T15:03:01.186Z,62.43
2023-01-22T15:06:08.707Z,62.07
2023-01-22T15:09:15.036Z,57.35
2023-01-22T15:12:24.551Z,59.42
2023-01-22T15:15:31.038Z,66.61
2023-01-22T15:18:38.362Z,64.49
2023-01-22T15:21:44.539Z,68.43
2023-01-22T15:24:51.624Z,62.84
2023-01-22T15:28:00.381Z,63.45
2023-01-22T15:31:08.816Z,90.31
2023-01-22T15:34:15.024Z,75.54
2023-01-22T15:37:22.087Z,58.91
2023-01-22T15:40:28.236Z,59.71
2023-01-22T15:43:37.893Z,62.35
2023-01-22T15:46:46.543Z,60.33
2023-01-22T15:49:53.545Z,60.80
2023-01-22T15:53:00.755Z,54.83
2023-01-22T15:56:08.640Z,52.05
2023-01-22T15:59:17.570Z,53.51
2023-01-22T16:02:24.410Z,57.18
2023-01-22T16:05:30.606Z,59.03
2023-01-22T16:08:38.082Z,60.13
2023-01-22T16:11:44.149Z,62.04
2023-01-22T16:14:53.795Z,65.18
2023-01-22T16:18:01.188Z,65.28
2023-01-22T16:21:10.772Z,64.79
2023-01-22T16:24:16.800Z,66.33
2023-01-22T16:27:23.714Z,64.48
2023-01-22T16:30:32.885Z,64.34
2023-01-22T16:33:44.075Z,65.45
2023-01-22T16:36:51.084Z,62.20
2023-01-22T16:39:58.038Z,62.10
2023-01-22T16:43:05.825Z,60.93
2023-01-22T16:46:17.013Z,60.00
2023-01-22T16:49:26.197Z,67.51
2023-01-22T16:52:34.400Z,70.80
2023-01-22T16:55:40.715Z,70.52
2023-01-22T16:58:47.587Z,64.42
2023-01-22T17:01:58.069Z,57.14
2023-01-22T17:05:06.659Z,60.28
2023-01-22T17:08:12.819Z,63.38
2023-01-22T17:11:20.521Z,62.42
2023-01-22T17:14:31.491Z,66.77
2023-01-22T17:17:41.364Z,69.63
2023-01-22T17:21:01.447Z,74.90
2023-01-22T17:24:10.398Z,84.12
2023-01-22T17:27:18.754Z,94.11
2023-01-22T17:30:25.885Z,101.44
2023-01-22T17:33:35.455Z,98.87
2023-01-22T17:36:44.859Z,90.46
2023-01-22T17:39:53.095Z,82.43
2023-01-22T17:43:00.067Z,80.03
2023-01-22T17:46:10.821Z,77.24
2023-01-22T17:49:20.372Z,81.27
2023-01-22T17:52:26.512Z,84.53
2023-01-22T17:55:33.629Z,92.65
2023-01-22T17:58:40.716Z,136.33
2023-01-22T18:01:48.012Z,194.89
2023-01-22T18:04:56.892Z,184.12
2023-01-22T18:08:03.926Z,124.93
2023-01-22T18:11:13.406Z,122.24
2023-01-22T18:14:28.438Z,99.08
2023-01-22T18:17:35.406Z,105.64
2023-01-22T18:20:49.969Z,92.92
2023-01-22T18:23:56.943Z,89.14
2023-01-22T18:27:03.945Z,79.72
2023-01-22T18:30:15.581Z,70.49
2023-01-22T18:33:23.831Z,71.09
2023-01-22T18:36:37.217Z,64.81
2023-01-22T18:39:44.572Z,59.09
2023-01-22T18:42:51.328Z,56.30
2023-01-22T18:45:58.581Z,70.63
2023-01-22T18:49:10.158Z,65.00
2023-01-22T18:52:19.959Z,60.58
2023-01-22T18:55:26.141Z,57.64
2023-01-22T18:58:34.349Z,54.53
2023-01-22T19:01:44.601Z,54.98
2023-01-22T19:04:51.703Z,52.11
2023-01-22T19:08:01.068Z,54.80
2023-01-22T19:11:08.996Z,54.85
2023-01-22T19:14:20.660Z,54.00
2023-01-22T19:17:28.384Z,47.45
2023-01-22T19:20:39.736Z,52.94
2023-01-22T19:23:53.384Z,53.21
2023-01-22T19:27:00.910Z,53.36
2023-01-22T19:30:10.546Z,52.27
2023-01-22T19:33:16.664Z,49.85
2023-01-22T19:36:27.612Z,50.72
2023-01-22T19:39:39.788Z,45.50
2023-01-22T19:42:49.335Z,42.25
2023-01-22T19:45:56.131Z,44.66
2023-01-22T19:49:03.627Z,48.38
2023-01-22T19:52:09.928Z,43.57
2023-01-22T19:55:21.311Z,44.90
2023-01-22T19:58:28.535Z,45.15
2023-01-22T20:01:37.097Z,42.52
2023-01-22T20:04:43.483Z,42.80
2023-01-22T20:07:50.805Z,43.46
2023-01-22T20:11:05.301Z,44.99
2023-01-22T20:14:12.389Z,45.44
2023-01-22T20:17:18.472Z,41.28
2023-01-22T20:20:26.456Z,39.94
2023-01-22T20:23:33.542Z,38.67
2023-01-22T20:26:43.194Z,43.67
2023-01-22T20:29:49.887Z,42.40
2023-01-22T20:32:57.061Z,46.00
2023-01-22T20:36:07.597Z,50.98
2023-01-22T20:39:16.433Z,53.88
2023-01-22T20:42:25.320Z,52.36
2023-01-22T20:45:32.506Z,48.64
2023-01-22T20:48:39.493Z,45.00
2023-01-22T20:51:46.531Z,45.33
2023-01-22T20:55:01.292Z,45.46
2023-01-22T20:58:11.859Z,47.36
2023-01-22T21:01:20.652Z,49.92
2023-01-22T21:04:27.843Z,52.16
2023-01-22T21:07:33.993Z,52.09
2023-01-22T21:10:40.962Z,42.82
2023-01-22T21:13:51.000Z,42.70
2023-01-22T21:16:58.008Z,42.95
2023-01-22T21:20:04.228Z,40.30
2023-01-22T21:23:11.131Z,37.44
2023-01-22T21:26:19.505Z,39.00
2023-01-22T21:29:29.137Z,39.02
2023-01-22T21:32:37.554Z,44.11
2023-01-22T21:35:51.326Z,51.80
2023-01-22T21:38:57.487Z,41.83
2023-01-22T21:42:16.753Z,43.40
2023-01-22T21:45:37.804Z,39.40
2023-01-22T21:48:44.732Z,38.93
2023-01-22T21:51:54.137Z,38.08
2023-01-22T21:55:01.209Z,37.03
2023-01-22T21:58:08.991Z,31.16
2023-01-22T22:01:25.302Z,28.27
2023-01-22T22:04:31.608Z,28.43
2023-01-22T22:07:38.566Z,29.23
2023-01-22T22:10:51.488Z,30.26
2023-01-22T22:13:59.392Z,31.83
2023-01-22T22:17:08.315Z,30.38
2023-01-22T22:20:16.240Z,30.01
2023-01-22T22:23:22.726Z,29.64
2023-01-22T22:26:30.588Z,29.63
2023-01-22T22:29:36.713Z,29.18
2023-01-22T22:32:46.260Z,29.65
2023-01-22T22:35:52.311Z,30.58
2023-01-22T22:39:00.637Z,28.53
2023-01-22T22:42:06.958Z,27.32
2023-01-22T22:45:14.341Z,29.09
2023-01-22T22:48:23.129Z,24.09
2023-01-22T22:51:34.401Z,22.65
2023-01-22T22:54:40.470Z,22.38
2023-01-22T22:57:47.308Z,21.53
2023-01-22T23:00:53.714Z,21.87
2023-01-22T23:04:04.357Z,22.24
2023-01-22T23:07:10.469Z,23.37
2023-01-22T23:10:29.070Z,28.22
2023-01-22T23:13:35.804Z,30.63
2023-01-22T23:16:45.785Z,33.62
2023-01-22T23:19:54.703Z,36.21
2023-01-22T23:23:02.258Z,37.95
2023-01-22T23:26:13.799Z,39.09
2023-01-22T23:29:26.890Z,36.71
2023-01-22T23:32:33.278Z,38.97
2023-01-22T23:35:42.928Z,42.12
2023-01-22T23:38:49.453Z,46.55
2023-01-22T23:41:56.409Z,45.88
2023-01-22T23:45:02.505Z,48.49
2023-01-22T23:48:09.828Z,53.66
2023-01-22T23:51:20.629Z,60.78
2023-01-22T23:54:27.646Z,61.12
2023-01-22T23:57:33.675Z,56.97
